Stowe, Vermont
Current Conditions -  °F | °C
As of 9:54 AM on Thursday 23 Oct 2014 (Local Time) from KMVL Reporting Station
Overcast Overcast  
Wind Chill:   Ceiling: 2000
Heat Index:   Visibility: 10mi
Dew Point:   Wind: 8mph
Humidity: 76%   Direction: 360°N
Pressure: 29.97"   Gusts: NA
Location:  44.47°N, 72.68°W
Report Text: KMVL 231354Z AUTO 36007KT 10SM OVC020 08/04 A2997 RMK AO2 RAB36E46 SLP152 P0000 T00780039
Loading
Personal Weather Stations






























Interactive Weather Map
Tropical Storm Tracking
New forecast layout! Learn more

10-Day Weather Forecast

Advertisements
Track Severe Weather on mobile